Time;durP1;ratioP1;P1;durP2;ratioP2;P2;SDS_P1;SDS_P2;PMS_P1;PMS_P2;Temp;Humidity;BMP_temperature;BMP_pressure;BME280_temperature;BME280_humidity;BME280_pressure;Samples;Min_cycle;Max_cycle;Signal;HPM_P1;HPM_P2
2022/04/18 00:00:36;;;;;;;19.88;13.02;;;8.90;64.10;;;;;;5095027;28;20036;-51
2022/04/18 00:03:03;;;;;;;24.38;13.93;;;8.90;64.40;;;;;;5076018;28;20082;-50
2022/04/18 00:05:33;;;;;;;21.95;13.48;;;8.80;64.70;;;;;;5073662;28;20483;-51
2022/04/18 00:07:59;;;;;;;22.17;13.75;;;8.80;64.90;;;;;;5093543;28;20058;-52
2022/04/18 00:10:25;;;;;;;19.85;13.52;;;8.70;65.00;;;;;;5075330;28;20040;-51
2022/04/18 00:12:50;;;;;;;21.17;14.18;;;8.70;65.00;;;;;;5093948;28;20093;-52
2022/04/18 00:15:16;;;;;;;23.42;13.77;;;8.70;65.20;;;;;;5094002;28;20054;-54
2022/04/18 00:17:43;;;;;;;20.42;14.00;;;8.70;64.90;;;;;;5089041;28;20035;-54
2022/04/18 00:20:09;;;;;;;20.77;13.88;;;8.70;64.70;;;;;;5090936;28;20040;-54
2022/04/18 00:22:35;;;;;;;20.50;14.25;;;8.60;64.60;;;;;;5092196;28;20044;-54
2022/04/18 00:25:01;;;;;;;20.23;14.05;;;8.70;64.40;;;;;;5093802;28;20055;-54
2022/04/18 00:27:26;;;;;;;20.33;13.50;;;8.70;64.80;;;;;;5088675;28;20075;-54
2022/04/18 00:29:52;;;;;;;21.35;14.10;;;8.70;64.10;;;;;;5089387;28;20066;-54
2022/04/18 00:32:18;;;;;;;21.65;13.70;;;8.60;64.50;;;;;;5093103;28;20036;-54
2022/04/18 00:34:43;;;;;;;20.30;14.15;;;8.60;64.70;;;;;;5088076;28;20400;-54
2022/04/18 00:37:09;;;;;;;20.63;13.60;;;8.60;64.90;;;;;;5092445;28;20115;-54
2022/04/18 00:39:35;;;;;;;21.33;13.85;;;8.60;64.70;;;;;;5084563;28;20377;-54
2022/04/18 00:42:01;;;;;;;23.25;14.82;;;8.60;64.80;;;;;;5093098;28;20036;-54
2022/04/18 00:44:26;;;;;;;21.42;14.40;;;8.50;64.90;;;;;;5089248;28;20135;-50
2022/04/18 00:46:52;;;;;;;21.83;14.02;;;8.50;65.10;;;;;;5091857;22;20171;-48
2022/04/18 00:49:17;;;;;;;20.77;13.57;;;8.40;65.40;;;;;;5067406;28;20068;-50
2022/04/18 00:51:43;;;;;;;21.98;14.63;;;8.40;65.60;;;;;;5055262;28;20028;-48
2022/04/18 00:54:11;;;;;;;22.20;15.13;;;8.30;65.70;;;;;;5070041;28;20565;-47
2022/04/18 00:56:36;;;;;;;27.40;14.98;;;8.30;66.00;;;;;;5057217;28;20033;-47
2022/04/18 00:59:03;;;;;;;23.92;14.32;;;8.30;66.50;;;;;;5043960;28;20509;-49
2022/04/18 01:01:29;;;;;;;23.73;15.50;;;8.20;66.50;;;;;;5039176;28;20069;-48
2022/04/18 01:03:54;;;;;;;24.92;14.88;;;8.10;66.90;;;;;;5049152;28;20067;-48
2022/04/18 01:06:20;;;;;;;24.20;15.55;;;8.10;67.20;;;;;;5044334;28;20045;-48
2022/04/18 01:08:48;;;;;;;23.88;15.45;;;8.10;67.60;;;;;;5053066;28;20204;-47
2022/04/18 01:11:14;;;;;;;23.20;15.68;;;8.10;66.70;;;;;;5050628;28;20135;-47
2022/04/18 01:13:47;;;;;;;23.95;16.25;;;8.10;66.60;;;;;;5050112;28;20082;-47
2022/04/18 01:16:14;;;;;;;22.60;15.10;;;8.00;67.00;;;;;;5072231;28;20392;-47
2022/04/18 01:18:39;;;;;;;26.33;16.23;;;8.00;67.70;;;;;;5051840;28;20036;-47
2022/04/18 01:21:09;;;;;;;22.38;16.23;;;8.00;67.90;;;;;;5035368;28;20037;-48
2022/04/18 01:23:35;;;;;;;23.65;15.90;;;7.90;68.20;;;;;;5032670;28;20382;-47
2022/04/18 01:29:01;;;;;;;22.48;15.45;;;7.80;68.60;;;;;;5024398;28;20041;-47
2022/04/18 01:31:32;;;;;;;22.92;15.77;;;7.70;69.10;;;;;;5051659;28;20124;-49
2022/04/18 01:33:59;;;;;;;24.40;15.68;;;7.70;69.80;;;;;;5044290;28;20042;-49
2022/04/18 01:36:25;;;;;;;26.02;16.80;;;7.60;70.10;;;;;;5032329;28;20120;-48
2022/04/18 01:38:51;;;;;;;24.20;16.33;;;7.60;70.00;;;;;;5032162;28;20044;-50
2022/04/18 01:41:17;;;;;;;22.98;16.88;;;7.60;70.30;;;;;;5056370;28;20411;-47
2022/04/18 01:43:43;;;;;;;27.02;18.33;;;7.50;70.90;;;;;;5063314;28;20033;-47
2022/04/18 01:46:08;;;;;;;27.45;16.75;;;7.50;70.90;;;;;;5031818;28;20451;-48
2022/04/18 01:48:34;;;;;;;25.83;16.30;;;7.40;70.80;;;;;;5044309;28;20037;-47
2022/04/18 01:51:00;;;;;;;26.98;16.10;;;7.40;70.80;;;;;;5049845;28;20377;-50
2022/04/18 01:53:27;;;;;;;21.42;15.57;;;7.40;72.40;;;;;;5008108;28;20041;-51
2022/04/18 01:55:53;;;;;;;25.38;16.23;;;7.30;72.90;;;;;;5041460;28;20037;-47
2022/04/18 01:58:19;;;;;;;24.60;16.45;;;7.20;73.90;;;;;;5023792;28;20470;-47
2022/04/18 02:00:45;;;;;;;24.85;16.73;;;7.10;74.90;;;;;;5050621;28;20040;-48
2022/04/18 02:03:11;;;;;;;23.80;16.95;;;7.00;75.60;;;;;;5001324;28;20500;-47
2022/04/18 02:05:36;;;;;;;24.08;16.27;;;6.90;76.10;;;;;;5045472;28;20045;-47
2022/04/18 02:08:02;;;;;;;25.27;17.50;;;6.90;76.60;;;;;;5051556;28;20048;-50
2022/04/18 02:10:27;;;;;;;25.13;17.13;;;6.90;76.90;;;;;;5050084;28;20041;-47
2022/04/18 02:12:53;;;;;;;26.88;16.83;;;6.90;78.10;;;;;;5035861;28;20516;-48
2022/04/18 02:15:21;;;;;;;25.77;17.23;;;6.80;78.20;;;;;;5039258;28;20057;-48
2022/04/18 02:17:46;;;;;;;27.75;18.08;;;6.80;78.50;;;;;;5042900;28;20138;-48
2022/04/18 02:20:12;;;;;;;27.08;17.90;;;6.70;78.50;;;;;;5033221;28;20144;-47
2022/04/18 02:22:37;;;;;;;27.00;17.75;;;6.70;79.10;;;;;;5030910;28;20489;-49
2022/04/18 02:25:03;;;;;;;26.13;16.45;;;6.60;79.30;;;;;;5038778;28;20043;-48
2022/04/18 02:27:29;;;;;;;26.05;17.77;;;6.60;79.00;;;;;;5022772;28;20386;-50
2022/04/18 02:29:55;;;;;;;25.75;17.15;;;6.60;79.20;;;;;;5040060;28;20048;-49
2022/04/18 02:35:06;;;;;;;25.58;16.45;;;6.50;80.20;;;;;;5031765;28;20047;-51
2022/04/18 02:37:31;;;;;;;26.35;17.45;;;6.50;80.20;;;;;;5026004;28;20044;-48
2022/04/18 02:39:59;;;;;;;27.55;17.98;;;6.40;80.50;;;;;;5051299;28;20411;-51
2022/04/18 02:42:24;;;;;;;28.17;18.77;;;6.40;81.20;;;;;;5032697;28;20045;-51
2022/04/18 02:44:50;;;;;;;24.70;17.00;;;6.40;81.70;;;;;;5043148;28;20103;-51
2022/04/18 02:47:16;;;;;;;25.02;17.30;;;6.40;81.20;;;;;;5033181;28;20033;-51
2022/04/18 02:49:42;;;;;;;28.75;17.55;;;6.40;81.10;;;;;;5009957;28;20082;-50
2022/04/18 02:52:07;;;;;;;31.13;18.45;;;6.40;82.10;;;;;;5048840;28;20091;-53
2022/04/18 02:54:33;;;;;;;26.70;18.27;;;6.40;81.50;;;;;;5050825;28;20068;-50
2022/04/18 02:56:58;;;;;;;26.58;17.13;;;6.30;82.00;;;;;;5041937;28;20029;-53
2022/04/18 02:59:24;;;;;;;29.15;17.77;;;6.40;82.40;;;;;;5032068;28;20485;-51
2022/04/18 03:01:49;;;;;;;25.88;18.45;;;6.30;81.80;;;;;;5042846;28;20041;-51
2022/04/18 03:04:15;;;;;;;31.70;18.80;;;6.30;83.30;;;;;;5036133;28;20123;-51
2022/04/18 03:06:40;;;;;;;27.67;18.10;;;6.20;83.60;;;;;;5048561;28;20048;-50
2022/04/18 03:09:06;;;;;;;26.00;17.73;;;6.20;84.60;;;;;;5052253;28;20090;-51
2022/04/18 03:11:32;;;;;;;28.05;19.70;;;6.10;85.30;;;;;;5011536;28;20400;-52
2022/04/18 03:13:57;;;;;;;28.38;18.73;;;6.10;84.60;;;;;;5038853;28;20041;-49
2022/04/18 03:16:23;;;;;;;30.15;18.63;;;6.10;85.10;;;;;;5020336;28;20030;-50
2022/04/18 03:18:49;;;;;;;27.33;18.00;;;6.10;85.40;;;;;;5047474;28;20080;-51
2022/04/18 03:21:16;;;;;;;30.52;20.05;;;6.10;85.70;;;;;;5048020;28;20037;-51
2022/04/18 03:23:45;;;;;;;28.92;19.60;;;6.10;86.50;;;;;;5047961;28;20033;-51
2022/04/18 03:26:11;;;;;;;28.90;19.50;;;6.00;87.00;;;;;;5043276;28;20481;-49
2022/04/18 03:28:37;;;;;;;27.05;18.33;;;6.00;87.50;;;;;;5042877;28;20095;-48
2022/04/18 03:31:03;;;;;;;30.92;19.80;;;6.00;86.80;;;;;;5035581;28;20155;-51
2022/04/18 03:33:29;;;;;;;32.42;20.67;;;5.90;86.10;;;;;;5054480;28;20048;-52
2022/04/18 03:41:23;;;;;;;29.67;19.70;;;5.90;87.20;;;;;;5044834;28;20459;-50
2022/04/18 03:43:51;;;;;;;28.33;19.67;;;5.90;87.40;;;;;;5030378;28;20041;-50
2022/04/18 03:46:17;;;;;;;27.77;18.65;;;5.90;87.70;;;;;;5041901;28;20059;-52
2022/04/18 03:48:43;;;;;;;32.30;20.35;;;5.90;87.10;;;;;;5040246;28;20041;-52
2022/04/18 03:51:08;;;;;;;29.17;19.17;;;5.90;87.20;;;;;;5045209;28;20508;-50
2022/04/18 03:53:34;;;;;;;29.42;18.90;;;5.90;87.40;;;;;;5041042;28;20139;-49
2022/04/18 03:56:00;;;;;;;29.00;19.15;;;5.90;87.00;;;;;;5001134;28;20491;-51
2022/04/18 03:58:25;;;;;;;29.13;18.95;;;5.90;85.70;;;;;;5045441;28;20032;-51
2022/04/18 04:00:51;;;;;;;27.98;18.45;;;5.90;84.90;;;;;;5053878;28;20094;-51
2022/04/18 04:03:16;;;;;;;30.70;18.98;;;6.00;83.80;;;;;;5053220;28;20067;-53
2022/04/18 04:05:42;;;;;;;28.55;19.42;;;6.00;83.60;;;;;;5045115;28;20386;-50
2022/04/18 04:08:07;;;;;;;27.38;18.35;;;6.00;83.50;;;;;;5037217;28;20516;-51
2022/04/18 04:10:33;;;;;;;26.50;19.15;;;6.00;84.00;;;;;;5047999;28;20036;-48
2022/04/18 04:12:59;;;;;;;29.85;18.77;;;6.00;84.80;;;;;;5041904;28;20108;-50
2022/04/18 04:15:25;;;;;;;29.73;19.25;;;6.00;84.70;;;;;;5032682;28;20482;-51
2022/04/18 04:17:51;;;;;;;28.10;18.58;;;6.00;85.50;;;;;;5010122;28;20029;-48
2022/04/18 04:20:16;;;;;;;27.00;17.90;;;5.90;86.60;;;;;;5040203;28;20048;-51
2022/04/18 04:22:51;;;;;;;29.40;18.52;;;6.00;85.00;;;;;;5044647;28;20063;-51
2022/04/18 04:25:17;;;;;;;27.30;18.65;;;6.00;84.30;;;;;;5043215;28;20051;-51
2022/04/18 04:27:42;;;;;;;29.48;16.90;;;6.00;83.50;;;;;;5038937;28;20033;-50
2022/04/18 04:30:08;;;;;;;31.23;18.63;;;6.10;82.80;;;;;;5043960;28;20037;-49
2022/04/18 04:32:34;;;;;;;25.42;16.98;;;6.10;81.80;;;;;;5045409;28;20037;-51
2022/04/18 04:35:00;;;;;;;24.25;16.20;;;6.10;81.70;;;;;;5049694;28;20126;-47
2022/04/18 04:37:25;;;;;;;28.50;17.42;;;6.10;80.60;;;;;;5053312;28;20037;-51
2022/04/18 04:39:51;;;;;;;25.05;17.17;;;6.20;79.00;;;;;;5045350;28;20041;-51
2022/04/18 04:42:17;;;;;;;26.27;17.88;;;6.20;80.50;;;;;;5023617;28;20041;-47
2022/04/18 04:44:43;;;;;;;26.90;18.08;;;6.10;81.90;;;;;;5026455;28;20048;-48
2022/04/18 04:47:09;;;;;;;28.27;16.90;;;6.10;82.00;;;;;;5032629;28;20029;-50
2022/04/18 04:49:35;;;;;;;25.95;16.75;;;6.10;81.20;;;;;;5012552;28;20104;-50
2022/04/18 04:52:00;;;;;;;22.63;16.10;;;6.10;81.10;;;;;;5033719;28;20051;-47
2022/04/18 04:54:26;;;;;;;24.60;16.63;;;6.10;81.40;;;;;;5039769;28;20120;-52
2022/04/18 04:56:52;;;;;;;24.42;15.85;;;6.10;81.30;;;;;;5013952;28;20033;-47
2022/04/18 04:59:17;;;;;;;25.55;16.77;;;6.10;81.90;;;;;;5043237;28;20044;-47
2022/04/18 05:01:43;;;;;;;26.98;16.58;;;6.00;82.70;;;;;;5035214;28;20099;-52
2022/04/18 05:04:09;;;;;;;25.88;17.30;;;6.10;81.90;;;;;;5052759;28;20049;-48
2022/04/18 05:06:34;;;;;;;29.63;16.77;;;6.00;81.70;;;;;;5052689;28;20041;-47
2022/04/18 05:09:00;;;;;;;25.40;16.70;;;6.00;82.40;;;;;;5051452;28;20044;-48
2022/04/18 05:11:26;;;;;;;26.98;17.25;;;6.00;83.50;;;;;;5032711;28;20465;-49
2022/04/18 05:13:51;;;;;;;24.45;16.50;;;6.00;82.40;;;;;;5032906;28;20044;-50
2022/04/18 05:16:17;;;;;;;24.67;16.83;;;6.00;81.90;;;;;;5014890;28;20507;-50
2022/04/18 05:18:43;;;;;;;25.40;16.48;;;6.10;82.30;;;;;;5045063;28;20534;-48
2022/04/18 05:21:09;;;;;;;27.17;17.17;;;6.10;81.70;;;;;;5052634;28;20094;-47
2022/04/18 05:23:35;;;;;;;23.98;16.60;;;6.10;81.90;;;;;;5050199;28;20037;-47
2022/04/18 05:26:00;;;;;;;24.35;15.75;;;6.20;82.40;;;;;;5017667;28;20098;-48
2022/04/18 05:28:26;;;;;;;26.67;16.38;;;6.30;81.20;;;;;;5052385;28;20045;-48
2022/04/18 05:30:51;;;;;;;27.10;17.73;;;6.40;80.40;;;;;;5052225;28;20037;-47
2022/04/18 05:33:18;;;;;;;25.80;16.52;;;6.50;81.00;;;;;;5041211;28;20079;-47
2022/04/18 05:35:43;;;;;;;29.05;17.33;;;6.60;80.30;;;;;;5037743;28;20068;-50
2022/04/18 05:38:09;;;;;;;26.45;17.50;;;6.60;80.00;;;;;;5035891;28;20120;-47
2022/04/18 05:40:35;;;;;;;28.42;16.73;;;6.70;79.30;;;;;;5033379;28;20036;-47
2022/04/18 05:43:02;;;;;;;32.38;18.55;;;6.80;78.60;;;;;;5033724;28;20029;-48
2022/04/18 05:45:28;;;;;;;30.33;18.88;;;6.80;77.60;;;;;;5050918;28;20465;-49
2022/04/18 05:47:53;;;;;;;33.40;19.25;;;7.00;77.40;;;;;;5017362;28;20041;-47
2022/04/18 05:50:19;;;;;;;35.75;19.85;;;7.20;76.40;;;;;;5051594;28;20120;-47
2022/04/18 05:52:47;;;;;;;37.83;19.30;;;7.60;74.60;;;;;;5050855;28;20032;-48
2022/04/18 05:55:12;;;;;;;35.28;18.75;;;7.90;74.10;;;;;;5022869;28;20047;-52
2022/04/18 05:57:38;;;;;;;34.35;18.77;;;8.20;73.00;;;;;;5020455;28;20033;-47
2022/04/18 06:00:05;;;;;;;31.85;18.10;;;8.50;71.00;;;;;;5024333;28;20452;-47
2022/04/18 06:02:31;;;;;;;31.95;18.10;;;8.70;69.80;;;;;;5032766;28;20041;-47
2022/04/18 06:04:56;;;;;;;31.13;18.85;;;8.90;69.40;;;;;;5007219;28;20374;-48
2022/04/18 06:07:23;;;;;;;30.58;18.40;;;9.10;68.00;;;;;;5043781;28;20038;-48
2022/04/18 06:09:48;;;;;;;30.05;17.55;;;9.30;66.50;;;;;;5008322;28;20112;-48
2022/04/18 06:12:19;;;;;;;31.10;17.35;;;9.40;66.70;;;;;;5041357;28;20120;-48
2022/04/18 06:14:44;;;;;;;29.15;17.48;;;9.50;66.60;;;;;;5049442;28;20025;-48
2022/04/18 06:17:10;;;;;;;29.23;17.15;;;9.60;66.30;;;;;;5043038;28;20454;-47
2022/04/18 06:19:35;;;;;;;26.00;16.45;;;9.60;64.70;;;;;;5051539;28;20041;-50
2022/04/18 06:22:01;;;;;;;26.33;15.70;;;9.80;63.90;;;;;;5051908;28;20048;-47
2022/04/18 06:24:26;;;;;;;25.23;14.95;;;9.80;63.80;;;;;;5042073;28;20045;-48
2022/04/18 06:26:52;;;;;;;27.00;15.77;;;9.70;64.60;;;;;;4994320;28;20500;-48
2022/04/18 06:29:18;;;;;;;21.67;14.98;;;9.60;64.60;;;;;;5034114;28;20045;-50
2022/04/18 06:31:44;;;;;;;22.90;15.07;;;9.60;64.30;;;;;;5033636;28;20049;-48
2022/04/18 06:34:09;;;;;;;22.67;14.63;;;9.50;66.00;;;;;;5035620;28;20048;-48
2022/04/18 06:36:35;;;;;;;25.10;14.82;;;9.50;65.10;;;;;;5038721;28;20033;-48
2022/04/18 06:39:02;;;;;;;23.98;14.43;;;9.60;66.10;;;;;;5038794;28;20037;-48
2022/04/18 06:41:28;;;;;;;20.58;14.57;;;9.60;65.20;;;;;;5040345;28;20450;-53
2022/04/18 06:43:54;;;;;;;23.40;14.48;;;9.70;64.40;;;;;;5050760;28;20122;-48
2022/04/18 06:46:20;;;;;;;23.02;15.38;;;9.70;63.40;;;;;;5022406;28;20111;-48
2022/04/18 06:48:46;;;;;;;21.42;14.45;;;9.70;65.70;;;;;;5058901;23;20503;-55
2022/04/18 06:51:11;;;;;;;23.42;15.00;;;9.50;64.30;;;;;;5074190;28;20052;-55
2022/04/18 06:53:37;;;;;;;21.98;14.18;;;9.90;65.20;;;;;;5078035;28;20032;-55
2022/04/18 06:58:46;;;;;;;20.83;13.80;;;10.00;64.60;;;;;;5087101;28;20349;-55
2022/04/18 07:01:12;;;;;;;23.20;14.52;;;10.10;64.40;;;;;;5098522;28;20395;-55
2022/04/18 07:03:37;;;;;;;21.00;13.68;;;10.20;64.80;;;;;;5104801;28;20040;-55
2022/04/18 07:06:03;;;;;;;21.30;13.73;;;10.20;64.80;;;;;;5092234;28;20459;-52
2022/04/18 07:08:29;;;;;;;19.30;13.63;;;10.30;64.90;;;;;;5095614;28;20549;-52
2022/04/18 07:10:54;;;;;;;24.77;14.43;;;10.40;63.40;;;;;;5094773;28;20584;-55
2022/04/18 07:13:20;;;;;;;23.58;14.18;;;10.40;64.80;;;;;;5053177;28;20039;-55
2022/04/18 07:15:45;;;;;;;21.15;13.68;;;10.50;64.50;;;;;;5096243;28;20073;-55
2022/04/18 07:18:11;;;;;;;20.65;13.85;;;10.60;65.60;;;;;;5096865;28;20044;-55
2022/04/18 07:20:36;;;;;;;20.67;13.40;;;10.70;63.70;;;;;;5097742;28;20043;-55
2022/04/18 07:23:02;;;;;;;22.38;13.23;;;10.70;64.60;;;;;;5095596;28;20042;-52
2022/04/18 07:25:27;;;;;;;20.23;12.48;;;10.80;64.60;;;;;;5096840;28;20032;-55
2022/04/18 07:27:53;;;;;;;18.10;11.38;;;11.00;61.80;;;;;;5097193;28;20051;-56
2022/04/18 07:30:18;;;;;;;19.77;12.32;;;11.10;62.00;;;;;;5097062;28;20066;-52
2022/04/18 07:32:44;;;;;;;18.48;12.05;;;11.10;61.10;;;;;;5095586;28;20491;-55
2022/04/18 07:35:11;;;;;;;20.48;12.77;;;11.20;61.40;;;;;;5097596;28;20032;-53
2022/04/18 07:38:48;;;;;;;19.25;12.40;;;11.40;61.70;;;;;;5097839;28;20040;-56
2022/04/18 07:40:24;;;;;;;17.33;12.55;;;11.50;63.00;;;;;;5097770;28;20625;-56
2022/04/18 07:42:49;;;;;;;18.65;11.77;;;11.60;62.80;;;;;;5096872;28;20411;-55
2022/04/18 07:45:15;;;;;;;19.25;11.48;;;11.80;62.00;;;;;;5097879;28;20044;-56
2022/04/18 07:47:40;;;;;;;18.45;11.32;;;11.90;62.20;;;;;;5097380;28;20420;-56
2022/04/18 07:50:06;;;;;;;17.60;11.93;;;12.10;60.80;;;;;;5096349;28;20637;-56
2022/04/18 07:52:32;;;;;;;17.13;12.18;;;12.20;60.40;;;;;;5076721;28;20047;-56
2022/04/18 07:54:57;;;;;;;18.75;11.25;;;12.30;60.60;;;;;;5094639;28;20119;-56
2022/04/18 07:57:23;;;;;;;17.63;11.85;;;12.40;60.20;;;;;;5093164;28;20032;-55
2022/04/18 07:59:48;;;;;;;17.05;10.85;;;12.60;59.80;;;;;;5094403;28;20039;-54
2022/04/18 08:02:14;;;;;;;15.13;10.20;;;12.80;60.20;;;;;;5094252;28;20085;-56
2022/04/18 08:04:39;;;;;;;18.63;11.02;;;12.90;58.40;;;;;;5094356;28;20036;-56
2022/04/18 08:07:06;;;;;;;18.00;11.10;;;13.00;58.60;;;;;;5075954;28;20036;-55
2022/04/18 08:09:31;;;;;;;17.85;10.65;;;13.10;58.50;;;;;;5093070;28;20044;-56
2022/04/18 08:11:57;;;;;;;16.58;11.15;;;13.20;58.30;;;;;;5086367;28;20086;-56
2022/04/18 08:14:22;;;;;;;17.10;10.77;;;13.30;57.00;;;;;;5093646;28;20032;-56
2022/04/18 08:16:48;;;;;;;15.32;10.30;;;13.40;56.80;;;;;;5093750;28;20096;-56
2022/04/18 08:19:14;;;;;;;15.02;10.43;;;13.50;56.50;;;;;;5094231;28;20515;-56
2022/04/18 08:21:39;;;;;;;13.77;10.15;;;13.60;55.80;;;;;;5094105;28;20495;-56
2022/04/18 08:24:05;;;;;;;16.40;10.25;;;13.70;56.00;;;;;;5093883;28;20495;-56
2022/04/18 08:26:30;;;;;;;15.23;10.15;;;13.80;54.40;;;;;;5092625;28;20048;-56
2022/04/18 08:28:56;;;;;;;17.40;10.57;;;13.90;55.40;;;;;;5092759;28;20111;-56
2022/04/18 08:31:22;;;;;;;13.13;9.57;;;14.10;55.20;;;;;;5083362;28;20392;-54
2022/04/18 08:33:47;;;;;;;13.82;8.75;;;14.20;54.60;;;;;;5092348;28;20044;-55
2022/04/18 08:36:13;;;;;;;14.40;9.40;;;14.30;55.30;;;;;;5093754;28;20032;-56
2022/04/18 08:38:39;;;;;;;15.27;9.52;;;14.40;53.40;;;;;;5093559;28;20111;-56
2022/04/18 08:41:05;;;;;;;15.35;8.65;;;14.50;54.50;;;;;;5093634;28;20053;-55
2022/04/18 08:43:31;;;;;;;13.10;8.93;;;14.50;53.80;;;;;;5092411;28;20102;-55
2022/04/18 08:45:56;;;;;;;13.68;9.00;;;14.70;54.00;;;;;;5093258;28;20555;-54
2022/04/18 08:53:57;;;;;;;14.60;9.45;;;14.90;51.00;;;;;;5093233;28;20415;-56
2022/04/18 08:56:22;;;;;;;13.23;9.23;;;15.00;52.10;;;;;;5092080;28;20032;-54
2022/04/18 08:58:48;;;;;;;14.13;9.30;;;15.00;52.90;;;;;;5091732;28;20373;-56
2022/04/18 09:01:13;;;;;;;15.45;9.45;;;15.10;53.00;;;;;;5092472;28;20051;-55
2022/04/18 09:03:39;;;;;;;16.15;10.70;;;15.20;53.30;;;;;;5093240;28;20043;-55
2022/04/18 09:06:10;;;;;;;15.18;9.75;;;15.40;53.10;;;;;;5092959;28;20079;-55
2022/04/18 09:09:03;;;;;;;16.77;10.00;;;15.50;52.50;;;;;;5093058;28;20048;-55
2022/04/18 09:11:37;;;;;;;13.43;9.52;;;15.60;52.00;;;;;;5089345;28;20052;-55
2022/04/18 09:14:14;;;;;;;15.65;10.05;;;15.60;51.20;;;;;;5092966;28;20115;-54
2022/04/18 09:16:41;;;;;;;13.65;9.95;;;15.70;50.60;;;;;;5092559;28;20032;-55
2022/04/18 09:19:12;;;;;;;13.43;9.70;;;15.70;50.90;;;;;;5092667;28;20484;-55
2022/04/18 09:22:03;;;;;;;15.45;9.40;;;15.80;50.60;;;;;;5092762;28;20063;-52
2022/04/18 09:24:37;;;;;;;15.23;9.45;;;15.80;50.40;;;;;;5091881;28;20119;-51
2022/04/18 09:27:13;;;;;;;16.30;9.52;;;15.90;52.90;;;;;;5089300;28;20483;-51
2022/04/18 09:29:39;;;;;;;16.50;9.95;;;16.10;53.50;;;;;;5092400;28;20075;-54
2022/04/18 09:32:13;;;;;;;14.30;9.63;;;16.20;50.90;;;;;;5092265;28;20519;-52
2022/04/18 09:34:40;;;;;;;12.52;8.93;;;16.30;50.20;;;;;;5092521;28;20499;-54
2022/04/18 09:37:17;;;;;;;13.55;9.43;;;16.40;51.10;;;;;;5092209;28;20039;-53
2022/04/18 09:39:50;;;;;;;15.52;9.15;;;16.50;52.40;;;;;;5091557;28;20039;-54
2022/04/18 09:42:15;;;;;;;;;;;16.60;52.80;;;;;;5092569;28;20036;-51
2022/04/18 09:44:41;;;;;;;14.35;9.10;;;16.70;52.30;;;;;;5091426;28;20349;-56
2022/04/18 09:47:06;;;;;;;10.25;6.53;;;16.80;52.30;;;;;;5070193;28;20443;-53
2022/04/18 09:49:39;;;;;;;10.20;6.07;;;16.90;47.80;;;;;;5084481;28;20063;-53
2022/04/18 09:52:11;;;;;;;10.18;6.70;;;17.00;48.50;;;;;;5091202;28;20036;-55
2022/04/18 09:54:57;;;;;;;11.80;7.20;;;17.10;48.70;;;;;;5091783;28;20079;-56
2022/04/18 09:57:32;;;;;;;11.82;7.85;;;17.20;49.80;;;;;;5072223;28;20048;-53
2022/04/18 09:59:58;;;;;;;10.95;7.47;;;17.20;50.00;;;;;;5073548;28;20584;-55
2022/04/18 10:02:25;;;;;;;10.77;6.95;;;17.30;48.20;;;;;;5092114;28;20495;-53
2022/04/18 10:04:52;;;;;;;10.13;7.10;;;17.40;48.40;;;;;;5091977;28;20495;-54
2022/04/18 10:07:19;;;;;;;12.32;7.15;;;17.40;48.20;;;;;;5090159;28;20036;-53
2022/04/18 10:09:45;;;;;;;10.98;6.30;;;17.50;48.70;;;;;;5089803;28;20115;-53
2022/04/18 10:12:12;;;;;;;7.60;5.20;;;17.60;49.00;;;;;;5089891;28;20039;-52
2022/04/18 10:14:40;;;;;;;9.48;5.68;;;17.80;47.80;;;;;;5077737;28;20032;-56
2022/04/18 10:17:09;;;;;;;11.73;6.47;;;17.80;46.90;;;;;;5081405;28;20412;-53
2022/04/18 10:20:03;;;;;;;8.68;6.18;;;17.80;47.30;;;;;;5099919;28;20032;-55
2022/04/18 10:22:49;;;;;;;9.20;6.38;;;17.90;46.90;;;;;;5089051;28;20040;-53
2022/04/18 10:25:49;;;;;;;12.82;6.63;;;17.90;47.60;;;;;;5091745;28;20098;-55
2022/04/18 10:28:17;;;;;;;7.40;4.75;;;17.90;48.00;;;;;;5090343;28;20391;-55
2022/04/18 10:30:59;;;;;;;7.93;4.82;;;18.00;42.90;;;;;;5073212;28;20040;-54
2022/04/18 10:33:27;;;;;;;7.00;4.93;;;18.10;43.60;;;;;;5091762;28;20047;-53
2022/04/18 10:35:55;;;;;;;9.77;5.35;;;18.10;43.60;;;;;;5090506;28;20036;-55
2022/04/18 10:38:25;;;;;;;11.00;6.22;;;18.10;44.60;;;;;;5089045;28;20036;-54
2022/04/18 10:40:51;;;;;;;9.98;5.50;;;18.10;45.10;;;;;;5075385;28;20032;-54
2022/04/18 10:43:17;;;;;;;7.75;5.10;;;18.20;46.10;;;;;;5091262;28;20036;-54
2022/04/18 10:45:42;;;;;;;9.40;5.43;;;18.20;46.90;;;;;;5091367;28;20162;-54
2022/04/18 10:48:13;;;;;;;7.90;5.55;;;18.40;48.00;;;;;;5090180;28;20036;-53
2022/04/18 10:50:56;;;;;;;8.27;5.85;;;18.50;46.90;;;;;;5090651;28;20115;-54
2022/04/18 10:53:24;;;;;;;8.52;5.82;;;18.60;45.10;;;;;;5090077;28;20388;-53
2022/04/18 10:55:56;;;;;;;7.18;4.20;;;18.60;45.10;;;;;;5089098;28;20035;-56
2022/04/18 10:58:27;;;;;;;6.43;4.00;;;18.70;43.80;;;;;;5087150;28;20254;-56
2022/04/18 11:00:54;;;;;;;7.65;4.30;;;18.70;42.50;;;;;;5072890;28;20040;-56
2022/04/18 11:03:39;;;;;;;6.72;4.22;;;18.80;41.60;;;;;;5091261;28;20495;-54
2022/04/18 11:06:36;;;;;;;8.98;4.07;;;18.80;40.90;;;;;;5090949;28;20407;-56
2022/04/18 11:09:13;;;;;;;6.60;3.50;;;18.90;41.70;;;;;;5091112;28;20051;-54
2022/04/18 11:12:05;;;;;;;10.07;4.30;;;18.90;42.60;;;;;;5090726;28;20036;-56
2022/04/18 11:14:51;;;;;;;7.30;4.43;;;19.00;43.90;;;;;;5089323;28;20387;-56
2022/04/18 11:17:40;;;;;;;11.75;4.53;;;19.10;43.20;;;;;;5089867;28;20036;-56
2022/04/18 11:20:36;;;;;;;6.93;4.28;;;19.20;43.20;;;;;;5087915;28;20118;-56
2022/04/18 11:23:23;;;;;;;8.10;4.35;;;19.20;42.80;;;;;;5082377;28;20052;-56
2022/04/18 11:25:59;;;;;;;6.60;4.93;;;19.30;42.90;;;;;;5093335;28;20043;-56
2022/04/18 11:28:41;;;;;;;7.40;5.07;;;19.40;41.40;;;;;;5093861;28;20028;-54
2022/04/18 11:31:09;;;;;;;8.77;5.35;;;19.40;42.80;;;;;;5093905;28;20403;-56
2022/04/18 11:33:42;;;;;;;7.07;5.00;;;19.50;42.30;;;;;;5093939;28;20119;-55
2022/04/18 11:36:09;;;;;;;8.60;4.40;;;19.50;43.10;;;;;;5091226;28;20466;-56
2022/04/18 11:38:35;;;;;;;8.70;4.88;;;19.60;41.50;;;;;;5090755;28;20503;-56
2022/04/18 11:41:09;;;;;;;7.80;4.90;;;19.50;41.40;;;;;;5090608;28;20043;-56
2022/04/18 11:43:34;;;;;;;8.60;5.68;;;19.60;42.80;;;;;;5087696;28;20035;-56
2022/04/18 11:46:08;;;;;;;7.28;5.38;;;19.60;43.10;;;;;;5077290;28;20035;-56
2022/04/18 11:48:34;;;;;;;11.55;5.63;;;19.70;41.60;;;;;;5088495;28;20067;-54
2022/04/18 11:51:00;;;;;;;8.90;5.65;;;19.70;41.80;;;;;;5075007;28;20159;-53
2022/04/18 11:53:35;;;;;;;8.02;5.13;;;19.70;40.00;;;;;;5082482;28;20119;-56
2022/04/18 11:56:06;;;;;;;10.35;5.10;;;19.60;42.20;;;;;;5077003;28;20062;-56
2022/04/18 11:58:36;;;;;;;8.02;5.00;;;19.60;42.00;;;;;;5074380;28;20396;-55
2022/04/18 12:06:47;;;;;;;9.90;5.32;;;19.80;42.40;;;;;;5087545;28;20056;-54
2022/04/18 12:09:16;;;;;;;7.65;5.35;;;19.90;40.70;;;;;;5077531;28;20499;-55
2022/04/18 12:11:42;;;;;;;8.20;5.20;;;19.90;40.40;;;;;;5074263;28;20419;-53
2022/04/18 12:14:07;;;;;;;8.18;5.00;;;19.80;40.50;;;;;;5074338;28;20032;-56
2022/04/18 12:16:35;;;;;;;7.53;5.35;;;19.90;41.20;;;;;;5084880;28;20383;-56
2022/04/18 12:19:01;;;;;;;8.00;4.90;;;19.90;41.30;;;;;;5091688;28;20056;-56
2022/04/18 12:21:27;;;;;;;7.82;5.40;;;20.00;41.60;;;;;;5093525;28;20556;-56
2022/04/18 12:23:55;;;;;;;6.68;4.57;;;20.10;42.40;;;;;;5096008;28;20138;-56
2022/04/18 12:26:27;;;;;;;10.18;5.07;;;20.10;41.70;;;;;;5087138;28;20032;-56
2022/04/18 12:29:06;;;;;;;6.18;4.70;;;20.20;40.70;;;;;;5078221;28;20147;-56
2022/04/18 12:31:32;;;;;;;8.77;5.15;;;20.10;40.80;;;;;;5080173;28;20033;-55
2022/04/18 12:33:58;;;;;;;8.43;5.10;;;20.20;40.20;;;;;;5084702;28;20546;-56
2022/04/18 12:36:25;;;;;;;8.70;4.95;;;20.10;40.60;;;;;;5073760;28;20039;-54
2022/04/18 12:38:54;;;;;;;7.70;5.35;;;20.10;40.70;;;;;;5085712;28;20035;-56
2022/04/18 12:41:34;;;;;;;6.38;4.90;;;20.10;39.30;;;;;;5091909;28;20032;-57
2022/04/18 12:44:01;;;;;;;7.22;5.05;;;20.10;37.90;;;;;;5090891;28;20036;-56
2022/04/18 12:46:31;;;;;;;7.50;4.80;;;20.00;37.10;;;;;;5084182;28;20028;-55
2022/04/18 12:49:02;;;;;;;6.68;4.78;;;19.90;38.30;;;;;;5093597;28;20059;-54
2022/04/18 12:51:50;;;;;;;13.00;5.07;;;19.80;38.90;;;;;;5084233;28;20041;-52
2022/04/18 12:54:19;;;;;;;6.30;4.32;;;19.90;40.40;;;;;;5091972;28;20036;-54
2022/04/18 12:56:46;;;;;;;7.43;4.45;;;20.00;41.10;;;;;;5069759;28;20149;-54
2022/04/18 12:59:14;;;;;;;7.65;3.97;;;20.10;41.30;;;;;;5093087;28;20043;-52
2022/04/18 13:01:40;;;;;;;6.70;4.45;;;20.20;41.60;;;;;;5092282;28;20043;-55
2022/04/18 13:04:22;;;;;;;6.68;4.65;;;20.30;41.50;;;;;;5086192;28;20035;-56
2022/04/18 13:06:59;;;;;;;6.63;4.28;;;20.30;40.80;;;;;;5091875;28;20039;-54